Аэропорт: Нальчик. Нальчик

ICAO: URMN

METAR:
2024-07-24 15:00:00
URMN 241500Z 22005MPS 9999 SCT///CB OVC083 22/18 Q1006 R24/210155 TEMPO VRB06G13MPS 1500 TSRA BKN004 BKN020CB RMK QFE718
TAF:
2024-07-24 14:00:00
TAF URMN 241400Z 2415/2424 22003G08MPS 9999 BKN020 
  TEMPO 2415/2421 VRB06G13MPS 6000 -TSRA BKN016CB